AIRPORT METAR

METAR FOR LIME
ADDS - METARS form results

(0834 UTC 20 May 2019)
Data provider http://aviationweather.gov/metar/data/
 
METAR text: LIME 200820Z 26004KT 240V300 4000 -RA BR BKN007 OVC045 13/12 Q1005 NOSIG
Conditions at: LIME (BERGAMO/ORIO SER, IT) observed 0820 UTC 20 May 2019
Temperature: 13.0°C (55°F)
Dewpoint: 12.0°C (54°F) [RH = 94%]
Pressure (altimeter): 29.68 inches Hg (1005.0 mb)
Winds: from the W (260 degrees) at 5 MPH (4 knots; 2.1 m/s)
Visibility: 2.49 miles (4.01 km)
Ceiling: 700 feet AGL
Clouds: broken clouds at 700 feet AGL
overcast cloud deck at 4500 feet AGL
Weather: -RA BR  (light rain, mist)

METAR text: LIME 200750Z 26003KT 220V290 4000 -RA BR SCT007 OVC055 13/12 Q1005 NOSIG
Conditions at: LIME (BERGAMO/ORIO SER, IT) observed 0750 UTC 20 May 2019
Temperature: 13.0°C (55°F)
Dewpoint: 12.0°C (54°F) [RH = 94%]
Pressure (altimeter): 29.68 inches Hg (1005.0 mb)
Winds: from the W (260 degrees) at 3 MPH (3 knots; 1.5 m/s)
Visibility: 2.49 miles (4.01 km)
Ceiling: 5500 feet AGL
Clouds: scattered clouds at 700 feet AGL
overcast cloud deck at 5500 feet AGL
Weather: -RA BR  (light rain, mist)

Forecast for: LIME (BERGAMO/ORIO SER, IT)
Text: TAF LIME 200500Z 2006/2106 VRB05KT 6000 SCT010 BKN050
Forecast period: 0600 UTC 20 May 2019 to 0600 UTC 21 May 2019
Forecast type: FROM: standard forecast or significant change
Winds: variable direction winds at 6 MPH (5 knots; 2.6 m/s)
Visibility: 4 miles (6 km)
Ceiling: 5000 feet AGL
Clouds: scattered clouds at 1000 feet AGL
broken clouds at 5000 feet AGL
Weather: no significant weather forecast for this period
Text: TEMPO 2006/2018 2500 RA
Forecast period: 0600 to 1800 UTC 20 May 2019
Forecast type: TEMPORARY: The following changes expected for less than half the time period
Visibility: 1.55 miles (2.49 km)
Ceiling: unknown
Clouds: missing
Weather: RA  (moderate rain)

AIRPORT MAP

 RUNWAY INFORMATION
Runway 10 Runway length 9636 ft Runway width 148 ft
Runway elevation 779 ft Runway displaced threshold 312 ft Runway heading 105
Runway 28 Runway length 9636 ft Runway width 148 ft
Runway elevation 754 ft Runway displaced threshold 427 ft Runway heading 285
Runway 12 Runway length 2552 ft Runway width 59 ft
Runway elevation 782 ft Runway displaced threshold 210 ft Runway heading 121
Runway 30 Runway length 2552 ft Runway width 59 ft
Runway elevation 782 ft Runway displaced threshold 328 ft Runway heading 301

 AIRPORT FREQUENCIES
Type APP Name MILANO APP Frequency 126.75 MHZ
Type ATIS Name ATIS Frequency 112.6 MHZ
Type GND Name ORIO GND Frequency 120.5 MHZ
Type TWR Name ORIO TWR Frequency 126.5 MHZ

 AIRPORT NEAR NAVIGATION AIDS
Type VOR-DME Name Orio Al Serio Frequency 112600 KHZ
Type NDB Name Orio Al Serio Frequency 377 KHZ



© 2017 - Royal Sky Service, All Right Reserved. | Design & Developed by Davide Torresan